createdAt,value
2023-01-15T00:03:22.021Z,0.00
2023-01-15T00:06:51.556Z,0.00
2023-01-15T00:10:20.835Z,0.00
2023-01-15T00:13:50.115Z,0.10
2023-01-15T00:17:19.322Z,0.00
2023-01-15T00:20:48.450Z,0.00
2023-01-15T00:24:14.752Z,0.00
2023-01-15T00:28:01.934Z,0.00
2023-01-15T00:31:31.332Z,0.00
2023-01-15T00:35:00.632Z,0.00
2023-01-15T00:38:22.400Z,0.10
2023-01-15T00:41:22.806Z,0.00
2023-01-15T00:44:25.216Z,0.00
2023-01-15T00:47:53.308Z,0.00
2023-01-15T00:51:22.693Z,0.00
2023-01-15T00:54:51.892Z,0.00
2023-01-15T00:58:21.389Z,0.00
2023-01-15T01:01:50.288Z,0.00
2023-01-15T01:05:19.541Z,0.00
2023-01-15T01:08:39.512Z,0.00
2023-01-15T01:12:01.629Z,0.00
2023-01-15T01:15:24.044Z,0.00
2023-01-15T01:18:56.561Z,0.00
2023-01-15T01:22:25.620Z,0.00
2023-01-15T01:25:54.814Z,0.00
2023-01-15T01:29:24.288Z,0.00
2023-01-15T01:32:53.811Z,0.00
2023-01-15T01:36:22.857Z,0.00
2023-01-15T01:39:52.115Z,0.00
2023-01-15T01:43:21.152Z,0.00
2023-01-15T01:46:50.495Z,0.10
2023-01-15T01:50:19.417Z,0.20
2023-01-15T01:53:39.138Z,0.20
2023-01-15T01:56:42.849Z,0.40
2023-01-15T02:00:11.852Z,0.90
2023-01-15T02:03:10.619Z,0.40
2023-01-15T02:06:39.348Z,0.30
2023-01-15T02:10:08.213Z,0.40
2023-01-15T02:13:10.783Z,0.30
2023-01-15T02:16:49.430Z,0.30
2023-01-15T02:20:16.759Z,0.30
2023-01-15T02:24:03.326Z,0.20
2023-01-15T02:27:48.627Z,0.20
2023-01-15T02:31:18.174Z,0.10
2023-01-15T02:34:46.084Z,0.20
2023-01-15T02:38:17.747Z,0.20
2023-01-15T02:41:39.804Z,0.30
2023-01-15T02:45:09.103Z,0.20
2023-01-15T02:48:38.535Z,0.20
2023-01-15T02:52:10.323Z,0.30
2023-01-15T02:55:44.773Z,0.60
2023-01-15T02:59:04.595Z,0.40
2023-01-15T03:02:33.403Z,0.30
2023-01-15T03:06:07.924Z,0.30
2023-01-15T03:08:57.134Z,0.20
2023-01-15T03:12:25.940Z,0.30
2023-01-15T03:15:55.802Z,0.30
2023-01-15T03:19:14.931Z,0.30
2023-01-15T03:22:43.807Z,0.40
2023-01-15T03:26:15.734Z,0.30
2023-01-15T03:29:47.245Z,0.40
2023-01-15T03:33:16.099Z,0.40
2023-01-15T03:36:45.353Z,0.50
2023-01-15T03:40:14.471Z,1.10
2023-01-15T03:44:04.873Z,0.70
2023-01-15T03:47:44.503Z,0.90
2023-01-15T03:51:13.342Z,1.00
2023-01-15T03:54:42.907Z,1.30
2023-01-15T03:58:24.313Z,1.50
2023-01-15T04:01:24.323Z,2.00
2023-01-15T04:04:53.503Z,1.70
2023-01-15T04:08:15.846Z,1.80
2023-01-15T04:11:55.397Z,2.10
2023-01-15T04:15:09.825Z,2.30
2023-01-15T04:18:38.616Z,2.50
2023-01-15T04:21:34.484Z,1.30
2023-01-15T04:25:03.338Z,1.30
2023-01-15T04:28:24.899Z,0.90
2023-01-15T04:31:59.300Z,1.50
2023-01-15T04:34:51.644Z,1.60
2023-01-15T04:37:51.023Z,2.30
2023-01-15T04:41:17.856Z,1.60
2023-01-15T04:44:07.272Z,1.10
2023-01-15T04:47:11.214Z,1.40
2023-01-15T04:50:21.688Z,1.10
2023-01-15T04:53:50.668Z,1.40
2023-01-15T04:57:09.943Z,0.90
2023-01-15T05:00:27.231Z,1.00
2023-01-15T05:03:56.068Z,1.10
2023-01-15T05:07:25.055Z,0.70
2023-01-15T05:10:56.060Z,0.70
2023-01-15T05:14:25.126Z,0.60
2023-01-15T05:17:54.933Z,0.80
2023-01-15T05:21:23.695Z,0.70
2023-01-15T05:24:32.761Z,0.80
2023-01-15T05:27:41.612Z,0.60
2023-01-15T05:31:10.644Z,0.60
2023-01-15T05:34:39.499Z,0.60
2023-01-15T05:37:40.518Z,0.90
2023-01-15T05:41:09.729Z,0.70
2023-01-15T05:44:38.636Z,0.50
2023-01-15T05:48:07.572Z,0.50
2023-01-15T05:51:36.374Z,0.50
2023-01-15T05:55:00.747Z,0.50
2023-01-15T05:58:20.014Z,0.40
2023-01-15T06:01:51.486Z,0.40
2023-01-15T06:05:26.201Z,0.30
2023-01-15T06:08:55.029Z,0.20
2023-01-15T06:12:26.376Z,0.20
2023-01-15T06:15:55.269Z,0.20
2023-01-15T06:19:25.818Z,0.30
2023-01-15T06:22:38.027Z,0.20
2023-01-15T06:25:48.501Z,0.30
2023-01-15T06:29:17.198Z,0.30
2023-01-15T06:32:29.245Z,0.30
2023-01-15T06:35:39.467Z,0.40
2023-01-15T06:39:08.897Z,0.30
2023-01-15T06:42:26.105Z,0.40
2023-01-15T06:49:24.548Z,0.50
2023-01-15T06:52:45.178Z,0.30
2023-01-15T06:56:07.359Z,0.40
2023-01-15T06:59:14.788Z,0.40
2023-01-15T07:02:33.736Z,0.50
2023-01-15T07:05:33.024Z,0.40
2023-01-15T07:09:06.375Z,0.30
2023-01-15T07:12:35.160Z,0.30
2023-01-15T07:15:49.932Z,0.30
2023-01-15T07:19:12.951Z,0.20
2023-01-15T07:26:32.477Z,0.30
2023-01-15T07:30:00.767Z,0.20
2023-01-15T07:33:29.435Z,0.10
2023-01-15T07:36:48.713Z,0.10
2023-01-15T07:40:17.700Z,0.00
2023-01-15T07:43:44.795Z,0.10
2023-01-15T07:47:11.826Z,0.10
2023-01-15T07:50:41.027Z,0.10
2023-01-15T07:54:10.332Z,0.00
2023-01-15T07:57:38.977Z,0.00
2023-01-15T08:01:08.282Z,0.00
2023-01-15T08:04:37.609Z,0.00
2023-01-15T08:08:19.316Z,0.00
2023-01-15T08:11:40.993Z,0.00
2023-01-15T08:15:07.775Z,0.00
2023-01-15T08:18:39.532Z,0.10
2023-01-15T08:22:09.289Z,0.00
2023-01-15T08:25:38.372Z,0.10
2023-01-15T08:29:07.674Z,0.00
2023-01-15T08:32:29.849Z,0.00
2023-01-15T08:39:42.861Z,0.00
2023-01-15T08:43:17.643Z,0.00
2023-01-15T08:47:28.596Z,0.00
2023-01-15T08:50:40.720Z,0.00
2023-01-15T08:54:09.909Z,0.00
2023-01-15T08:57:37.799Z,0.00
2023-01-15T09:01:06.307Z,0.00
2023-01-15T09:04:35.278Z,0.00
2023-01-15T09:07:56.491Z,0.00
2023-01-15T09:11:27.585Z,0.00
2023-01-15T09:15:02.141Z,0.00
2023-01-15T09:18:31.736Z,0.00
2023-01-15T09:22:03.404Z,0.00
2023-01-15T09:25:32.945Z,0.00
2023-01-15T09:28:55.093Z,0.00
2023-01-15T09:32:13.340Z,0.00
2023-01-15T09:36:14.655Z,0.00
2023-01-15T09:39:31.190Z,0.00
2023-01-15T09:43:04.369Z,0.00
2023-01-15T09:46:32.331Z,0.00
2023-01-15T09:50:02.819Z,0.00
2023-01-15T09:53:38.502Z,0.00
2023-01-15T09:57:07.426Z,0.00
2023-01-15T10:00:36.498Z,0.00
2023-01-15T10:04:30.125Z,0.00
2023-01-15T10:08:05.219Z,0.00
2023-01-15T10:11:34.641Z,0.00
2023-01-15T10:15:15.815Z,0.00
2023-01-15T10:18:34.886Z,0.00
2023-01-15T10:22:05.474Z,0.00
2023-01-15T10:25:37.492Z,0.00
2023-01-15T10:29:12.911Z,0.00
2023-01-15T10:32:41.603Z,0.00
2023-01-15T10:36:36.692Z,0.00
2023-01-15T10:40:04.657Z,0.00
2023-01-15T10:43:37.767Z,0.00
2023-01-15T10:47:07.196Z,0.00
2023-01-15T10:50:19.554Z,0.00
2023-01-15T10:53:57.295Z,0.00
2023-01-15T10:57:31.232Z,0.00
2023-01-15T11:01:01.034Z,0.00
2023-01-15T11:04:30.217Z,0.00
2023-01-15T11:07:43.877Z,0.00
2023-01-15T11:11:17.602Z,0.00
2023-01-15T11:14:53.975Z,0.00
2023-01-15T11:18:23.515Z,0.00
2023-01-15T11:21:51.471Z,0.00
2023-01-15T11:25:14.361Z,0.00
2023-01-15T11:28:41.673Z,0.00
2023-01-15T11:32:12.605Z,0.00
2023-01-15T11:35:36.699Z,0.00
2023-01-15T11:38:57.598Z,0.00
2023-01-15T11:42:28.101Z,0.00
2023-01-15T11:45:49.168Z,0.00
2023-01-15T11:49:25.435Z,0.00
2023-01-15T11:53:00.805Z,0.00
2023-01-15T11:56:36.185Z,0.00
2023-01-15T12:00:04.266Z,0.00
2023-01-15T12:03:42.482Z,0.00
2023-01-15T12:07:09.191Z,0.00
2023-01-15T12:10:58.577Z,0.00
2023-01-15T12:14:25.232Z,0.00
2023-01-15T12:18:47.314Z,0.00
2023-01-15T12:21:46.556Z,0.00
2023-01-15T12:25:18.795Z,0.00
2023-01-15T12:29:05.492Z,0.00
2023-01-15T12:32:34.725Z,0.00
2023-01-15T12:36:12.297Z,0.00
2023-01-15T12:39:40.702Z,0.00
2023-01-15T12:43:00.763Z,0.00
2023-01-15T12:46:29.865Z,0.00
2023-01-15T12:50:00.604Z,0.00
2023-01-15T12:53:29.555Z,0.00
2023-01-15T12:57:03.159Z,0.00
2023-01-15T13:00:27.913Z,0.00
2023-01-15T13:04:00.424Z,0.00
2023-01-15T13:07:02.239Z,0.00
2023-01-15T13:10:43.120Z,0.00
2023-01-15T13:14:21.028Z,0.00
2023-01-15T13:17:59.325Z,0.00
2023-01-15T13:21:28.630Z,0.00
2023-01-15T13:24:57.697Z,0.00
2023-01-15T13:28:30.660Z,0.00
2023-01-15T13:32:09.083Z,0.00
2023-01-15T13:36:07.824Z,0.00
2023-01-15T13:39:24.024Z,0.00
2023-01-15T13:42:54.051Z,0.40
2023-01-15T13:46:22.775Z,0.00
2023-01-15T13:49:22.946Z,0.00
2023-01-15T13:52:52.276Z,0.00
2023-01-15T13:56:10.456Z,0.00
2023-01-15T13:59:18.943Z,0.00
2023-01-15T14:02:29.568Z,0.00
2023-01-15T14:05:51.061Z,0.00
2023-01-15T14:09:00.226Z,0.00
2023-01-15T14:12:33.341Z,0.00
2023-01-15T14:16:10.096Z,0.00
2023-01-15T14:19:26.805Z,0.00
2023-01-15T14:23:14.411Z,0.00
2023-01-15T14:26:26.527Z,0.00
2023-01-15T14:29:54.250Z,0.00
2023-01-15T14:33:34.182Z,0.00
2023-01-15T14:36:33.275Z,0.00
2023-01-15T14:40:08.111Z,0.00
2023-01-15T14:43:40.580Z,0.00
2023-01-15T14:46:45.895Z,0.00
2023-01-15T14:50:33.825Z,0.00
2023-01-15T14:53:44.703Z,0.00
2023-01-15T14:57:16.070Z,0.00
2023-01-15T15:00:45.327Z,0.00
2023-01-15T15:04:17.296Z,0.00
2023-01-15T15:07:49.469Z,0.00
2023-01-15T15:11:25.517Z,0.00
2023-01-15T15:17:35.731Z,0.00
2023-01-15T15:21:24.632Z,0.00
2023-01-15T15:24:40.849Z,0.00
2023-01-15T15:28:18.950Z,0.00
2023-01-15T15:31:31.840Z,0.00
2023-01-15T15:34:34.781Z,0.00
2023-01-15T15:37:36.971Z,0.00
2023-01-15T15:40:55.826Z,0.00
2023-01-15T15:44:23.472Z,0.00
2023-01-15T15:47:52.743Z,0.00
2023-01-15T15:51:10.294Z,0.00
2023-01-15T15:54:52.031Z,0.00
2023-01-15T15:58:15.633Z,0.00
2023-01-15T16:01:17.787Z,0.00
2023-01-15T16:04:49.409Z,0.00
2023-01-15T16:07:50.732Z,0.00
2023-01-15T16:11:22.739Z,0.00
2023-01-15T16:14:27.172Z,0.00
2023-01-15T16:17:36.866Z,0.00
2023-01-15T16:20:20.079Z,0.00
2023-01-15T16:24:04.178Z,0.10
2023-01-15T16:27:23.043Z,0.00
2023-01-15T16:30:33.744Z,0.00
2023-01-15T16:33:39.061Z,0.10
2023-01-15T16:36:42.610Z,0.10
2023-01-15T16:40:17.308Z,0.00
2023-01-15T16:43:52.017Z,0.00
2023-01-15T16:47:21.307Z,0.00
2023-01-15T16:50:55.699Z,0.00
2023-01-15T16:54:30.626Z,0.00
2023-01-15T16:58:00.052Z,0.00
2023-01-15T17:01:15.084Z,0.00
2023-01-15T17:04:24.261Z,0.00
2023-01-15T17:08:08.246Z,0.00
2023-01-15T17:11:40.174Z,0.00
2023-01-15T17:14:53.573Z,0.00
2023-01-15T17:17:53.433Z,0.00
2023-01-15T17:21:16.183Z,0.00
2023-01-15T17:24:45.322Z,0.00
2023-01-15T17:28:03.352Z,0.00
2023-01-15T17:31:31.073Z,0.10
2023-01-15T17:34:43.588Z,0.00
2023-01-15T17:37:29.207Z,0.00
2023-01-15T17:40:41.559Z,0.10
2023-01-15T17:44:00.227Z,0.00
2023-01-15T17:47:21.980Z,0.00
2023-01-15T17:50:50.180Z,0.00
2023-01-15T17:54:25.377Z,0.00
2023-01-15T17:57:41.271Z,0.00
2023-01-15T18:01:02.454Z,0.00
2023-01-15T18:04:32.455Z,0.00
2023-01-15T18:07:54.639Z,0.00
2023-01-15T18:11:24.258Z,0.00
2023-01-15T18:14:49.743Z,0.00
2023-01-15T18:18:18.802Z,0.00
2023-01-15T18:25:26.073Z,0.00
2023-01-15T18:28:48.015Z,0.00
2023-01-15T18:32:07.749Z,0.00
2023-01-15T18:35:30.069Z,0.00
2023-01-15T18:38:52.224Z,0.00
2023-01-15T18:42:22.040Z,0.00
2023-01-15T18:45:49.087Z,0.00
2023-01-15T18:49:18.017Z,0.00
2023-01-15T18:52:45.091Z,0.00
2023-01-15T18:56:13.913Z,0.00
2023-01-15T18:59:31.422Z,0.00
2023-01-15T19:03:00.105Z,0.00
2023-01-15T19:06:19.382Z,0.00
2023-01-15T19:09:38.566Z,0.00
2023-01-15T19:13:06.843Z,0.00
2023-01-15T19:16:50.991Z,0.00
2023-01-15T19:20:07.825Z,0.00
2023-01-15T19:23:34.438Z,0.00
2023-01-15T19:27:02.441Z,0.00
2023-01-15T19:30:32.134Z,0.00
2023-01-15T19:34:31.139Z,0.00
2023-01-15T19:37:42.791Z,0.00
2023-01-15T19:41:01.859Z,0.00
2023-01-15T19:44:17.577Z,0.00
2023-01-15T19:47:43.574Z,0.00
2023-01-15T19:53:56.637Z,0.00
2023-01-15T19:57:26.065Z,0.00
2023-01-15T20:00:45.256Z,0.00
2023-01-15T20:04:14.291Z,0.00
2023-01-15T20:07:36.736Z,0.00
2023-01-15T20:10:58.963Z,0.00
2023-01-15T20:14:16.504Z,0.00
2023-01-15T20:17:54.137Z,0.00
2023-01-15T20:21:11.616Z,0.00
2023-01-15T20:24:40.895Z,0.00
2023-01-15T20:28:09.596Z,0.00
2023-01-15T20:31:37.893Z,0.00
2023-01-15T20:35:07.064Z,0.00
2023-01-15T20:38:29.221Z,0.00
2023-01-15T20:41:56.181Z,0.00
2023-01-15T20:45:16.252Z,0.00
2023-01-15T20:48:51.247Z,0.00
2023-01-15T20:52:20.230Z,0.00
2023-01-15T20:55:25.456Z,0.00
2023-01-15T20:58:53.450Z,0.00
2023-01-15T21:01:42.075Z,0.00
2023-01-15T21:05:11.015Z,0.00
2023-01-15T21:08:32.035Z,0.00
2023-01-15T21:12:00.063Z,0.00
2023-01-15T21:15:29.173Z,0.00
2023-01-15T21:18:57.457Z,0.00
2023-01-15T21:22:26.077Z,0.00
2023-01-15T21:25:52.582Z,0.00
2023-01-15T21:29:11.769Z,0.00
2023-01-15T21:32:40.886Z,0.00
2023-01-15T21:36:09.785Z,0.00
2023-01-15T21:39:38.702Z,0.00
2023-01-15T21:43:05.734Z,0.00
2023-01-15T21:46:34.494Z,0.00
2023-01-15T21:50:03.240Z,0.00
2023-01-15T21:53:32.061Z,0.00
2023-01-15T21:56:50.628Z,0.00
2023-01-15T22:00:10.632Z,0.00
2023-01-15T22:03:39.429Z,0.00
2023-01-15T22:07:08.166Z,0.00
2023-01-15T22:10:36.971Z,0.00
2023-01-15T22:14:06.046Z,0.00
2023-01-15T22:17:35.581Z,0.00
2023-01-15T22:21:04.733Z,0.00
2023-01-15T22:24:34.291Z,0.00
2023-01-15T22:28:03.388Z,0.00
2023-01-15T22:31:24.825Z,0.00
2023-01-15T22:34:53.807Z,0.00
2023-01-15T22:38:15.568Z,0.00
2023-01-15T22:41:34.716Z,0.00
2023-01-15T22:45:05.930Z,0.00
2023-01-15T22:48:35.011Z,0.00
2023-01-15T22:52:04.505Z,0.00
2023-01-15T22:55:33.793Z,0.00
2023-01-15T22:59:02.663Z,0.10
2023-01-15T23:02:31.683Z,0.00
2023-01-15T23:05:41.252Z,0.00
2023-01-15T23:09:03.461Z,0.00
2023-01-15T23:12:33.110Z,0.00
2023-01-15T23:16:01.879Z,0.00
2023-01-15T23:19:30.875Z,0.00
2023-01-15T23:22:59.752Z,0.00
2023-01-15T23:26:28.506Z,0.00
2023-01-15T23:29:51.118Z,0.00
2023-01-15T23:33:19.789Z,0.00
2023-01-15T23:36:48.516Z,0.00
2023-01-15T23:40:17.372Z,0.00
2023-01-15T23:43:44.249Z,0.00
2023-01-15T23:47:15.062Z,0.00
2023-01-15T23:50:42.323Z,0.00
2023-01-15T23:54:11.076Z,0.00
2023-01-15T23:57:39.772Z,0.00
